ZA-0122 weather

Au Beep Flats Airport
Sendelingsdrif, Northern Cape, South Africa

Public forecast

Using degrees Celsius for public forecast. Weather courtesy of forecast.io.

METAR (pilot weather report)

Report is more than 6 hours old.

Closest report is Oranjemund Airport, 37.1 nm (68.7 km) SW. Retrieved 2015/11/28 17:00 UTC (4 years ago):

FYOG 281700Z AUTO 23007KT //// // ////// 19/13 Q1012

TAF (pilot weather forecast)

Forecast is more than 12 hours old.

Closest forecast is Alexander Bay Airport, 33.9 nm (62.8 km) SW. Retrieved 2017/07/06 00:54 UTC (2 years ago):

TAF FAAB 062130Z 0700/0806 27012KT 9999 BKN030 SCT080 BECMG 0702/0705 14010KT 8000 -RA/BR BKN030 BKN 080 BECMG0710/0713 9000 -RA BKN025 BKN070